createdAt,value
2017-06-13T00:00:02.575Z,15.60
2017-06-13T00:02:30.689Z,15.60
2017-06-13T00:04:58.811Z,15.60
2017-06-13T00:07:26.980Z,15.60
2017-06-13T00:09:55.134Z,15.50
2017-06-13T00:12:23.744Z,15.50
2017-06-13T00:14:51.891Z,15.50
2017-06-13T00:17:20.106Z,15.50
2017-06-13T00:19:49.165Z,15.50
2017-06-13T00:22:17.317Z,15.50
2017-06-13T00:24:45.495Z,15.50
2017-06-13T00:27:15.042Z,15.40
2017-06-13T00:29:43.226Z,15.30
2017-06-13T00:32:11.370Z,15.30
2017-06-13T00:34:39.542Z,15.30
2017-06-13T00:37:07.764Z,15.30
2017-06-13T00:39:36.083Z,15.30
2017-06-13T00:42:04.236Z,15.40
2017-06-13T00:44:32.919Z,15.30
2017-06-13T00:47:01.093Z,15.30
2017-06-13T00:49:30.012Z,15.30
2017-06-13T00:51:58.176Z,15.30
2017-06-13T00:54:26.332Z,15.30
2017-06-13T00:56:54.500Z,15.20
2017-06-13T00:59:22.696Z,15.20
2017-06-13T01:01:50.847Z,15.20
2017-06-13T01:04:19.014Z,15.20
2017-06-13T01:06:47.170Z,15.20
2017-06-13T01:09:15.342Z,15.20
2017-06-13T01:11:43.542Z,15.20
2017-06-13T01:14:11.784Z,15.20
2017-06-13T01:16:40.024Z,15.20
2017-06-13T01:19:08.186Z,15.20
2017-06-13T01:21:36.422Z,15.30
2017-06-13T01:24:04.564Z,15.30
2017-06-13T01:26:32.738Z,15.30
2017-06-13T01:29:01.619Z,15.30
2017-06-13T01:31:29.773Z,15.30
2017-06-13T01:33:57.980Z,15.20
2017-06-13T01:36:26.238Z,15.20
2017-06-13T01:38:54.414Z,15.20
2017-06-13T01:41:22.748Z,15.20
2017-06-13T01:43:50.967Z,15.20
2017-06-13T01:46:19.095Z,15.10
2017-06-13T01:48:47.220Z,15.20
2017-06-13T01:51:15.391Z,15.20
2017-06-13T01:53:43.652Z,15.20
2017-06-13T01:56:11.881Z,15.20
2017-06-13T01:58:40.104Z,15.20
2017-06-13T02:01:08.845Z,15.20
2017-06-13T02:03:37.759Z,15.20
2017-06-13T02:06:06.671Z,15.20
2017-06-13T02:08:34.837Z,15.20
2017-06-13T02:11:02.970Z,15.20
2017-06-13T02:13:31.101Z,15.30
2017-06-13T02:16:00.106Z,15.30
2017-06-13T02:18:28.280Z,15.30
2017-06-13T02:20:56.404Z,15.30
2017-06-13T02:23:24.548Z,15.30
2017-06-13T02:25:52.804Z,15.30
2017-06-13T02:28:21.707Z,15.30
2017-06-13T02:30:49.868Z,15.30
2017-06-13T02:33:18.016Z,15.30
2017-06-13T02:35:47.039Z,15.30
2017-06-13T02:38:15.160Z,15.20
2017-06-13T02:40:43.309Z,15.20
2017-06-13T02:43:12.193Z,15.20
2017-06-13T02:45:40.367Z,15.20
2017-06-13T02:48:08.551Z,15.20
2017-06-13T02:50:36.691Z,15.20
2017-06-13T02:53:04.973Z,15.20
2017-06-13T02:55:33.092Z,15.20
2017-06-13T02:58:01.529Z,15.30
2017-06-13T03:00:29.745Z,15.30
2017-06-13T03:02:57.873Z,15.30
2017-06-13T03:05:26.809Z,15.30
2017-06-13T03:07:57.827Z,15.30
2017-06-13T03:10:27.439Z,15.30
2017-06-13T03:12:56.159Z,15.20
2017-06-13T03:15:24.315Z,15.30
2017-06-13T03:17:53.280Z,15.30
2017-06-13T03:20:21.422Z,15.20
2017-06-13T03:22:50.131Z,15.30
2017-06-13T03:25:18.320Z,15.40
2017-06-13T03:27:46.561Z,15.40
2017-06-13T03:30:14.709Z,15.30
2017-06-13T03:32:42.853Z,15.30
2017-06-13T03:35:11.455Z,15.30
2017-06-13T03:37:39.602Z,15.30
2017-06-13T03:40:07.767Z,15.30
2017-06-13T03:42:36.691Z,15.30
2017-06-13T03:45:04.868Z,15.30
2017-06-13T03:47:33.004Z,15.20
2017-06-13T03:50:01.145Z,15.20
2017-06-13T03:52:30.171Z,15.30
2017-06-13T03:54:58.322Z,15.30
2017-06-13T03:57:26.566Z,15.30
2017-06-13T03:59:54.731Z,15.30
2017-06-13T04:02:22.933Z,15.30
2017-06-13T04:04:51.085Z,15.30
2017-06-13T04:07:19.255Z,15.30
2017-06-13T04:09:47.423Z,15.30
2017-06-13T04:12:15.588Z,15.30
2017-06-13T04:14:44.501Z,15.30
2017-06-13T04:17:12.666Z,15.30
2017-06-13T04:19:40.842Z,15.20
2017-06-13T04:22:09.039Z,15.20
2017-06-13T04:24:37.229Z,15.30
2017-06-13T04:27:05.367Z,15.20
2017-06-13T04:29:33.507Z,15.30
2017-06-13T04:32:01.681Z,15.20
2017-06-13T04:34:29.818Z,15.10
2017-06-13T04:36:58.019Z,15.10
2017-06-13T04:39:26.167Z,15.20
2017-06-13T04:41:55.068Z,15.20
2017-06-13T04:44:23.377Z,15.10
2017-06-13T04:46:52.433Z,15.10
2017-06-13T04:49:20.634Z,15.20
2017-06-13T04:51:49.519Z,15.20
2017-06-13T04:54:17.683Z,15.10
2017-06-13T04:56:45.822Z,15.10
2017-06-13T04:59:14.045Z,15.20
2017-06-13T05:01:42.289Z,15.20
2017-06-13T05:04:10.467Z,15.20
2017-06-13T05:06:39.392Z,15.30
2017-06-13T05:09:07.663Z,15.20
2017-06-13T05:11:35.857Z,15.30
2017-06-13T05:14:04.020Z,15.30
2017-06-13T05:16:32.215Z,15.30
2017-06-13T05:19:00.638Z,15.30
2017-06-13T05:21:28.818Z,15.30
2017-06-13T05:23:57.034Z,15.40
2017-06-13T05:26:25.181Z,15.40
2017-06-13T05:28:53.401Z,15.50
2017-06-13T05:31:22.180Z,15.40
2017-06-13T05:33:50.484Z,15.50
2017-06-13T05:36:18.638Z,15.60
2017-06-13T05:38:46.763Z,15.50
2017-06-13T05:41:15.046Z,15.60
2017-06-13T05:43:43.190Z,15.70
2017-06-13T05:46:12.240Z,15.70
2017-06-13T05:48:40.395Z,15.70
2017-06-13T05:51:08.575Z,15.70
2017-06-13T05:53:36.744Z,15.70
2017-06-13T05:56:04.873Z,15.70
2017-06-13T05:58:32.997Z,15.80
2017-06-13T06:01:01.162Z,15.70
2017-06-13T06:03:29.403Z,15.70
2017-06-13T06:05:57.574Z,15.80
2017-06-13T06:08:26.233Z,15.80
2017-06-13T06:10:55.087Z,15.80
2017-06-13T06:13:23.387Z,15.80
2017-06-13T06:15:51.512Z,15.90
2017-06-13T06:18:19.706Z,15.90
2017-06-13T06:20:47.994Z,15.90
2017-06-13T06:23:16.122Z,15.90
2017-06-13T06:25:44.276Z,16.00
2017-06-13T06:28:12.411Z,15.90
2017-06-13T06:30:40.573Z,15.90
2017-06-13T06:33:08.721Z,15.90
2017-06-13T06:35:36.851Z,15.90
2017-06-13T06:38:05.064Z,15.90
2017-06-13T06:40:33.207Z,15.80
2017-06-13T06:43:01.382Z,15.90
2017-06-13T06:45:29.533Z,15.90
2017-06-13T06:47:57.668Z,15.90
2017-06-13T06:50:25.837Z,15.90
2017-06-13T06:52:53.987Z,15.90
2017-06-13T06:55:22.310Z,15.90
2017-06-13T06:57:50.540Z,15.90
2017-06-13T07:00:18.680Z,16.00
2017-06-13T07:02:46.961Z,16.00
2017-06-13T07:05:15.084Z,16.00
2017-06-13T07:07:43.462Z,16.00
2017-06-13T07:10:12.407Z,16.10
2017-06-13T07:12:40.541Z,16.10
2017-06-13T07:15:09.033Z,16.00
2017-06-13T07:17:38.066Z,16.10
2017-06-13T07:20:06.977Z,16.10
2017-06-13T07:22:35.106Z,16.00
2017-06-13T07:25:03.868Z,16.10
2017-06-13T07:27:32.184Z,16.10
2017-06-13T07:30:00.307Z,16.00
2017-06-13T07:32:28.512Z,16.10
2017-06-13T07:34:56.662Z,16.00
2017-06-13T07:37:24.811Z,15.90
2017-06-13T07:39:53.007Z,16.00
2017-06-13T07:42:21.149Z,16.00
2017-06-13T07:44:49.339Z,16.00
2017-06-13T07:47:18.088Z,16.00
2017-06-13T07:49:46.220Z,16.00
2017-06-13T07:52:14.366Z,16.10
2017-06-13T07:54:42.495Z,16.10
2017-06-13T07:57:10.736Z,16.20
2017-06-13T07:59:39.275Z,16.30
2017-06-13T08:02:08.188Z,16.30
2017-06-13T08:04:36.328Z,16.30
2017-06-13T08:07:04.532Z,16.40
2017-06-13T08:09:32.789Z,16.30
2017-06-13T08:12:00.919Z,16.40
2017-06-13T08:14:29.083Z,16.50
2017-06-13T08:16:58.186Z,16.50
2017-06-13T08:19:27.104Z,16.80
2017-06-13T08:21:55.261Z,16.70
2017-06-13T08:24:23.400Z,16.80
2017-06-13T08:26:52.294Z,16.80
2017-06-13T08:29:20.412Z,16.60
2017-06-13T08:31:48.563Z,16.50
2017-06-13T08:34:16.817Z,16.50
2017-06-13T08:36:44.957Z,16.70
2017-06-13T08:39:13.307Z,16.90
2017-06-13T08:41:41.439Z,16.90
2017-06-13T08:44:09.609Z,17.10
2017-06-13T08:46:37.817Z,17.20
2017-06-13T08:49:05.947Z,17.60
2017-06-13T08:51:34.736Z,17.80
2017-06-13T08:54:02.863Z,17.90
2017-06-13T08:56:31.087Z,17.60
2017-06-13T08:58:59.235Z,17.50
2017-06-13T09:01:27.369Z,17.40
2017-06-13T09:03:55.657Z,17.60
2017-06-13T09:06:23.858Z,17.90
2017-06-13T09:08:53.244Z,18.00
2017-06-13T09:11:21.487Z,18.00
2017-06-13T09:13:49.638Z,17.90
2017-06-13T09:16:17.833Z,17.60
2017-06-13T09:18:45.973Z,17.60
2017-06-13T09:21:14.915Z,17.30
2017-06-13T09:23:43.262Z,17.20
2017-06-13T09:26:12.482Z,17.30
2017-06-13T09:28:40.669Z,17.30
2017-06-13T09:31:09.449Z,17.00
2017-06-13T09:33:39.067Z,16.90
2017-06-13T09:36:07.240Z,16.80
2017-06-13T09:38:36.218Z,17.10
2017-06-13T09:41:04.387Z,17.10
2017-06-13T09:43:32.569Z,17.60
2017-06-13T09:46:00.696Z,17.80
2017-06-13T09:48:28.886Z,17.90
2017-06-13T09:50:57.003Z,17.70
2017-06-13T09:53:25.218Z,17.60
2017-06-13T09:55:54.170Z,17.50
2017-06-13T09:58:22.325Z,17.60
2017-06-13T10:00:50.481Z,17.70
2017-06-13T10:03:20.198Z,18.10
2017-06-13T10:05:48.470Z,18.10
2017-06-13T10:08:16.675Z,18.50
2017-06-13T10:10:44.795Z,18.60
2017-06-13T10:13:13.013Z,18.70
2017-06-13T10:15:42.042Z,18.60
2017-06-13T10:18:10.384Z,18.50
2017-06-13T10:20:38.549Z,18.50
2017-06-13T10:23:06.694Z,18.30
2017-06-13T10:25:34.969Z,18.50
2017-06-13T10:28:03.285Z,18.70
2017-06-13T10:30:31.458Z,19.30
2017-06-13T10:32:59.634Z,19.50
2017-06-13T10:35:27.870Z,19.60
2017-06-13T10:37:56.111Z,19.00
2017-06-13T10:40:24.901Z,18.80
2017-06-13T10:42:53.153Z,18.50
2017-06-13T10:45:21.279Z,18.50
2017-06-13T10:47:49.410Z,18.50
2017-06-13T10:50:17.594Z,18.60
2017-06-13T10:52:45.811Z,18.80
2017-06-13T10:55:13.979Z,18.60
2017-06-13T10:57:42.130Z,18.60
2017-06-13T11:00:11.023Z,18.50
2017-06-13T11:02:39.398Z,18.50
2017-06-13T11:05:07.581Z,18.60
2017-06-13T11:07:36.507Z,18.80
2017-06-13T11:10:04.704Z,18.70
2017-06-13T11:12:33.739Z,18.70
2017-06-13T11:15:01.920Z,18.50
2017-06-13T11:17:30.167Z,18.50
2017-06-13T11:19:58.364Z,18.40
2017-06-13T11:22:27.273Z,18.40
2017-06-13T11:24:55.418Z,18.30
2017-06-13T11:27:23.578Z,18.30
2017-06-13T11:29:52.478Z,18.10
2017-06-13T11:32:20.775Z,18.10
2017-06-13T11:34:49.029Z,18.00
2017-06-13T11:37:17.203Z,18.00
2017-06-13T11:39:45.355Z,17.70
2017-06-13T11:42:13.556Z,17.50
2017-06-13T11:44:41.850Z,17.80
2017-06-13T11:47:10.061Z,18.20
2017-06-13T11:49:39.019Z,18.80
2017-06-13T11:52:07.826Z,18.80
2017-06-13T11:54:35.963Z,19.00
2017-06-13T11:57:04.187Z,19.60
2017-06-13T11:59:33.151Z,19.90
2017-06-13T12:02:01.366Z,19.80
2017-06-13T12:04:29.606Z,19.60
2017-06-13T12:06:57.757Z,19.40
2017-06-13T12:09:25.934Z,19.30
2017-06-13T12:11:54.850Z,19.40
2017-06-13T12:14:23.507Z,19.40
2017-06-13T12:16:51.683Z,19.40
2017-06-13T12:19:19.817Z,19.40
2017-06-13T12:21:48.015Z,19.80
2017-06-13T12:24:16.177Z,19.90
2017-06-13T12:26:45.105Z,19.80
2017-06-13T12:29:14.067Z,19.70
2017-06-13T12:31:42.269Z,20.00
2017-06-13T12:34:10.721Z,20.00
2017-06-13T12:36:38.909Z,19.90
2017-06-13T12:39:07.097Z,19.70
2017-06-13T12:41:35.370Z,19.60
2017-06-13T12:44:03.572Z,19.60
2017-06-13T12:46:31.806Z,19.20
2017-06-13T12:48:59.986Z,19.10
2017-06-13T12:51:28.205Z,19.40
2017-06-13T12:53:56.422Z,19.60
2017-06-13T12:56:24.576Z,19.70
2017-06-13T12:58:52.768Z,19.50
2017-06-13T13:01:20.924Z,19.70
2017-06-13T13:03:49.429Z,20.00
2017-06-13T13:06:17.816Z,20.20
2017-06-13T13:08:46.176Z,20.00
2017-06-13T13:11:14.793Z,19.80
2017-06-13T13:13:42.934Z,19.90
2017-06-13T13:16:11.200Z,20.10
2017-06-13T13:18:40.482Z,19.90
2017-06-13T13:21:08.861Z,19.80
2017-06-13T13:23:37.764Z,19.60
2017-06-13T13:26:06.019Z,19.70
2017-06-13T13:28:36.682Z,19.60
2017-06-13T13:31:04.896Z,19.30
2017-06-13T13:33:33.034Z,19.00
2017-06-13T13:36:01.725Z,19.10
2017-06-13T13:38:29.878Z,19.10
2017-06-13T13:40:58.398Z,19.30
2017-06-13T13:43:26.573Z,19.50
2017-06-13T13:45:54.842Z,19.30
2017-06-13T13:48:23.071Z,19.30
2017-06-13T13:50:51.234Z,19.40
2017-06-13T13:53:19.377Z,19.50
2017-06-13T13:55:47.838Z,19.50
2017-06-13T13:58:15.987Z,19.40
2017-06-13T14:00:44.154Z,19.40
2017-06-13T14:03:13.076Z,19.60
2017-06-13T14:05:41.264Z,19.50
2017-06-13T14:08:09.505Z,19.70
2017-06-13T14:10:38.279Z,19.70
2017-06-13T14:13:07.291Z,19.70
2017-06-13T14:15:35.582Z,19.70
2017-06-13T14:18:04.991Z,19.50
2017-06-13T14:20:33.185Z,19.50
2017-06-13T14:23:01.473Z,19.50
2017-06-13T14:25:30.505Z,19.40
2017-06-13T14:27:58.829Z,19.40
2017-06-13T14:30:27.605Z,19.40
2017-06-13T14:32:56.407Z,19.80
2017-06-13T14:35:25.349Z,19.20
2017-06-13T14:37:54.395Z,19.20
2017-06-13T14:40:23.900Z,19.20
2017-06-13T14:42:52.795Z,19.20
2017-06-13T14:45:20.965Z,19.10
2017-06-13T14:47:49.144Z,19.10
2017-06-13T14:50:17.334Z,19.20
2017-06-13T14:52:45.509Z,19.20
2017-06-13T14:55:13.686Z,19.20
2017-06-13T14:57:41.946Z,18.90
2017-06-13T15:00:11.604Z,18.90
2017-06-13T15:02:39.738Z,18.90
2017-06-13T15:05:09.277Z,18.80
2017-06-13T15:07:37.533Z,18.80
2017-06-13T15:10:05.712Z,18.80
2017-06-13T15:12:34.499Z,18.80
2017-06-13T15:15:02.656Z,18.80
2017-06-13T15:17:30.897Z,18.80
2017-06-13T15:19:59.045Z,19.00
2017-06-13T15:22:27.220Z,19.00
2017-06-13T15:24:55.379Z,19.00
2017-06-13T15:27:23.546Z,18.80
2017-06-13T15:29:51.705Z,18.70
2017-06-13T15:32:19.858Z,18.60
2017-06-13T15:34:48.417Z,18.50
2017-06-13T15:37:17.396Z,18.80
2017-06-13T15:39:46.037Z,18.80
2017-06-13T15:42:14.260Z,18.70
2017-06-13T15:44:43.161Z,18.80
2017-06-13T15:47:11.344Z,18.70
2017-06-13T15:49:39.722Z,18.70
2017-06-13T15:52:07.961Z,18.60
2017-06-13T15:54:36.133Z,18.40
2017-06-13T15:57:04.281Z,18.40
2017-06-13T15:59:32.489Z,18.50
2017-06-13T16:02:00.630Z,18.60
2017-06-13T16:04:28.852Z,18.70
2017-06-13T16:06:57.064Z,18.60
2017-06-13T16:09:25.192Z,18.60
2017-06-13T16:11:54.170Z,18.70
2017-06-13T16:14:22.388Z,18.70
2017-06-13T16:16:50.518Z,18.70
2017-06-13T16:19:18.683Z,18.60
2017-06-13T16:21:47.419Z,18.50
2017-06-13T16:24:16.408Z,18.40
2017-06-13T16:26:44.593Z,18.40
2017-06-13T16:29:12.788Z,18.40
2017-06-13T16:31:40.957Z,18.30
2017-06-13T16:34:12.370Z,18.20
2017-06-13T16:36:40.690Z,18.20
2017-06-13T16:39:09.621Z,18.00
2017-06-13T16:41:38.630Z,18.00
2017-06-13T16:44:06.791Z,18.10
2017-06-13T16:46:34.972Z,17.90
2017-06-13T16:49:03.168Z,17.90
2017-06-13T16:51:31.323Z,18.00
2017-06-13T16:53:59.502Z,17.90
2017-06-13T16:56:27.792Z,17.80
2017-06-13T16:58:57.213Z,17.80
2017-06-13T17:01:26.070Z,17.70
2017-06-13T17:03:54.209Z,17.90
2017-06-13T17:06:22.365Z,17.90
2017-06-13T17:08:50.636Z,17.80
2017-06-13T17:11:19.030Z,17.80
2017-06-13T17:13:47.322Z,17.90
2017-06-13T17:16:15.500Z,17.80
2017-06-13T17:18:43.693Z,17.80
2017-06-13T17:21:12.678Z,17.70
2017-06-13T17:23:41.401Z,17.70
2017-06-13T17:26:09.658Z,17.90
2017-06-13T17:28:38.369Z,17.70
2017-06-13T17:31:06.570Z,17.70
2017-06-13T17:33:34.838Z,17.70
2017-06-13T17:36:03.133Z,17.70
2017-06-13T17:38:31.316Z,17.70
2017-06-13T17:40:59.458Z,17.70
2017-06-13T17:43:27.604Z,17.90
2017-06-13T17:45:56.585Z,17.80
2017-06-13T17:48:24.738Z,17.70
2017-06-13T17:50:52.920Z,17.60
2017-06-13T17:53:21.071Z,17.60
2017-06-13T17:55:49.227Z,17.60
2017-06-13T17:58:17.401Z,17.60
2017-06-13T18:00:45.544Z,17.60
2017-06-13T18:03:13.778Z,17.50
2017-06-13T18:05:42.770Z,17.60
2017-06-13T18:08:10.885Z,17.50
2017-06-13T18:10:40.671Z,17.60
2017-06-13T18:13:08.823Z,17.70
2017-06-13T18:15:37.090Z,17.90
2017-06-13T18:18:05.662Z,17.60
2017-06-13T18:20:33.885Z,17.30
2017-06-13T18:23:02.075Z,17.30
2017-06-13T18:25:30.233Z,17.20
2017-06-13T18:27:58.407Z,17.20
2017-06-13T18:30:27.286Z,17.20
2017-06-13T18:32:55.410Z,17.20
2017-06-13T18:35:24.570Z,17.20
2017-06-13T18:37:53.291Z,17.10
2017-06-13T18:40:22.776Z,17.10
2017-06-13T18:42:50.950Z,17.30
2017-06-13T18:45:19.145Z,17.50
2017-06-13T18:47:49.119Z,17.60
2017-06-13T18:50:17.363Z,17.60
2017-06-13T18:52:45.550Z,17.70
2017-06-13T18:55:14.144Z,17.70
2017-06-13T18:57:42.296Z,17.60
2017-06-13T19:00:10.608Z,17.50
2017-06-13T19:02:39.599Z,17.50
2017-06-13T19:05:07.789Z,17.60
2017-06-13T19:07:37.282Z,17.60
2017-06-13T19:10:05.400Z,17.60
2017-06-13T19:12:33.646Z,17.60
2017-06-13T19:15:02.420Z,17.70
2017-06-13T19:17:30.623Z,17.60
2017-06-13T19:19:58.786Z,17.50
2017-06-13T19:22:27.700Z,17.60
2017-06-13T19:24:55.852Z,17.50
2017-06-13T19:27:24.773Z,17.50
2017-06-13T19:29:54.124Z,17.50
2017-06-13T19:32:22.277Z,17.50
2017-06-13T19:34:50.463Z,17.30
2017-06-13T19:37:19.376Z,17.10
2017-06-13T19:39:47.557Z,16.90
2017-06-13T19:42:15.711Z,16.70
2017-06-13T19:44:44.239Z,16.70
2017-06-13T19:47:12.530Z,16.60
2017-06-13T19:49:41.171Z,16.60
2017-06-13T19:52:09.327Z,16.50
2017-06-13T19:54:38.433Z,16.50
2017-06-13T19:57:06.948Z,16.40
2017-06-13T19:59:35.631Z,16.40
2017-06-13T20:02:04.463Z,16.30
2017-06-13T20:04:32.611Z,16.30
2017-06-13T20:07:00.841Z,16.20
2017-06-13T20:09:29.353Z,16.20
2017-06-13T20:11:57.544Z,16.10
2017-06-13T20:14:25.694Z,16.10
2017-06-13T20:16:54.064Z,16.10
2017-06-13T20:19:22.230Z,16.10
2017-06-13T20:21:50.379Z,16.00
2017-06-13T20:24:19.436Z,16.00
2017-06-13T20:26:47.607Z,16.00
2017-06-13T20:29:16.290Z,15.90
2017-06-13T20:31:44.462Z,15.80
2017-06-13T20:34:13.356Z,15.80
2017-06-13T20:36:41.583Z,15.80
2017-06-13T20:39:10.420Z,15.80
2017-06-13T20:41:38.639Z,15.80
2017-06-13T20:44:06.889Z,15.70
2017-06-13T20:46:35.024Z,15.70
2017-06-13T20:49:03.234Z,15.70
2017-06-13T20:51:31.395Z,15.70
2017-06-13T20:54:00.025Z,15.70
2017-06-13T20:56:28.236Z,15.70
2017-06-13T20:58:56.457Z,15.70
2017-06-13T21:01:24.937Z,15.60
2017-06-13T21:03:54.535Z,15.60
2017-06-13T21:06:22.731Z,15.50
2017-06-13T21:08:50.889Z,15.60
2017-06-13T21:11:19.027Z,15.50
2017-06-13T21:13:47.281Z,15.60
2017-06-13T21:16:15.429Z,15.60
2017-06-13T21:18:43.695Z,15.60
2017-06-13T21:21:11.856Z,15.50
2017-06-13T21:23:40.010Z,15.50
2017-06-13T21:26:08.189Z,15.50
2017-06-13T21:28:37.116Z,15.40
2017-06-13T21:31:06.027Z,15.40
2017-06-13T21:33:34.224Z,15.40
2017-06-13T21:36:03.134Z,15.30
2017-06-13T21:38:31.352Z,15.30
2017-06-13T21:40:59.506Z,15.40
2017-06-13T21:43:27.644Z,15.30
2017-06-13T21:45:57.134Z,15.30
2017-06-13T21:48:25.279Z,15.30
2017-06-13T21:50:53.511Z,15.40
2017-06-13T21:53:21.659Z,15.40
2017-06-13T21:55:49.787Z,15.40
2017-06-13T21:58:18.751Z,15.50
2017-06-13T22:00:47.017Z,15.40
2017-06-13T22:03:15.213Z,15.50
2017-06-13T22:05:44.133Z,15.40
2017-06-13T22:08:12.403Z,15.40
2017-06-13T22:10:40.566Z,15.30
2017-06-13T22:13:09.876Z,15.30
2017-06-13T22:15:38.069Z,15.30
2017-06-13T22:18:06.262Z,15.30
2017-06-13T22:20:35.166Z,15.40
2017-06-13T22:23:03.338Z,15.30
2017-06-13T22:25:31.505Z,15.30
2017-06-13T22:27:59.666Z,15.30
2017-06-13T22:30:28.567Z,15.30
2017-06-13T22:32:56.687Z,15.20
2017-06-13T22:35:25.706Z,15.20
2017-06-13T22:37:53.843Z,15.20
2017-06-13T22:40:22.843Z,15.20
2017-06-13T22:42:51.728Z,15.10
2017-06-13T22:45:20.320Z,15.10
2017-06-13T22:47:48.480Z,15.00
2017-06-13T22:50:16.636Z,15.00
2017-06-13T22:52:44.939Z,15.00
2017-06-13T22:55:13.085Z,15.00
2017-06-13T22:57:42.187Z,15.00
2017-06-13T23:00:10.355Z,15.00
2017-06-13T23:02:39.623Z,15.00
2017-06-13T23:05:07.816Z,14.90
2017-06-13T23:07:35.969Z,15.00
2017-06-13T23:10:04.096Z,14.90
2017-06-13T23:12:32.262Z,14.90
2017-06-13T23:15:01.200Z,14.80
2017-06-13T23:17:29.380Z,14.80
2017-06-13T23:19:57.514Z,14.80
2017-06-13T23:22:25.664Z,14.70
2017-06-13T23:24:53.810Z,14.80
2017-06-13T23:27:21.992Z,14.70
2017-06-13T23:29:50.198Z,14.80
2017-06-13T23:32:18.559Z,14.70
2017-06-13T23:34:47.482Z,14.70
2017-06-13T23:37:15.677Z,14.70
2017-06-13T23:39:43.873Z,14.70
2017-06-13T23:42:12.046Z,14.70
2017-06-13T23:44:40.710Z,14.60
2017-06-13T23:47:08.852Z,14.60
2017-06-13T23:49:37.027Z,14.50
2017-06-13T23:52:06.005Z,14.50
2017-06-13T23:54:34.181Z,14.50
2017-06-13T23:57:02.361Z,14.40
2017-06-13T23:59:30.517Z,14.40
